sensor_id;sensor_type;location;lat;lon;timestamp;P1;durP1;ratioP1;P2;durP2;ratioP2
9821;SDS011;4950;46.042;14.472;2022-08-25T00:02:00;5.30;;;4.80;;
9821;SDS011;4950;46.042;14.472;2022-08-25T00:04:30;5.13;;;4.68;;
9821;SDS011;4950;46.042;14.472;2022-08-25T00:06:59;5.57;;;4.65;;
9821;SDS011;4950;46.042;14.472;2022-08-25T00:09:27;6.15;;;4.80;;
9821;SDS011;4950;46.042;14.472;2022-08-25T00:11:55;4.68;;;4.28;;
9821;SDS011;4950;46.042;14.472;2022-08-25T00:14:22;4.65;;;4.18;;
9821;SDS011;4950;46.042;14.472;2022-08-25T00:16:51;4.70;;;4.30;;
9821;SDS011;4950;46.042;14.472;2022-08-25T00:19:19;4.80;;;4.30;;
9821;SDS011;4950;46.042;14.472;2022-08-25T00:21:48;5.75;;;5.13;;
9821;SDS011;4950;46.042;14.472;2022-08-25T00:24:16;4.72;;;4.30;;
9821;SDS011;4950;46.042;14.472;2022-08-25T00:26:47;5.93;;;4.40;;
9821;SDS011;4950;46.042;14.472;2022-08-25T00:29:15;5.95;;;4.80;;
9821;SDS011;4950;46.042;14.472;2022-08-25T00:31:43;6.47;;;4.43;;
9821;SDS011;4950;46.042;14.472;2022-08-25T00:34:11;6.45;;;4.85;;
9821;SDS011;4950;46.042;14.472;2022-08-25T00:36:40;4.93;;;4.53;;
9821;SDS011;4950;46.042;14.472;2022-08-25T00:39:07;5.55;;;4.40;;
9821;SDS011;4950;46.042;14.472;2022-08-25T00:41:36;5.70;;;4.63;;
9821;SDS011;4950;46.042;14.472;2022-08-25T00:44:06;5.15;;;4.40;;
9821;SDS011;4950;46.042;14.472;2022-08-25T00:46:36;5.07;;;4.63;;
9821;SDS011;4950;46.042;14.472;2022-08-25T00:49:09;5.03;;;4.53;;
9821;SDS011;4950;46.042;14.472;2022-08-25T00:51:41;5.07;;;4.60;;
9821;SDS011;4950;46.042;14.472;2022-08-25T00:54:10;6.15;;;5.10;;
9821;SDS011;4950;46.042;14.472;2022-08-25T00:56:41;6.13;;;5.03;;
9821;SDS011;4950;46.042;14.472;2022-08-25T00:59:10;6.63;;;5.30;;
9821;SDS011;4950;46.042;14.472;2022-08-25T01:01:39;5.35;;;4.85;;
9821;SDS011;4950;46.042;14.472;2022-08-25T01:04:05;5.10;;;4.70;;
9821;SDS011;4950;46.042;14.472;2022-08-25T01:06:33;5.78;;;4.75;;
9821;SDS011;4950;46.042;14.472;2022-08-25T01:09:04;5.38;;;4.97;;
9821;SDS011;4950;46.042;14.472;2022-08-25T01:11:33;5.45;;;4.95;;
9821;SDS011;4950;46.042;14.472;2022-08-25T01:14:00;5.63;;;4.95;;
9821;SDS011;4950;46.042;14.472;2022-08-25T01:16:32;5.30;;;4.80;;
9821;SDS011;4950;46.042;14.472;2022-08-25T01:18:59;5.57;;;5.07;;
9821;SDS011;4950;46.042;14.472;2022-08-25T01:21:28;5.75;;;5.05;;
9821;SDS011;4950;46.042;14.472;2022-08-25T01:23:57;5.40;;;4.90;;
9821;SDS011;4950;46.042;14.472;2022-08-25T01:26:26;6.05;;;5.55;;
9821;SDS011;4950;46.042;14.472;2022-08-25T01:28:55;5.93;;;5.43;;
9821;SDS011;4950;46.042;14.472;2022-08-25T01:31:41;5.90;;;5.00;;
9821;SDS011;4950;46.042;14.472;2022-08-25T01:34:08;5.72;;;5.22;;
9821;SDS011;4950;46.042;14.472;2022-08-25T01:36:38;5.32;;;4.82;;
9821;SDS011;4950;46.042;14.472;2022-08-25T01:39:07;5.78;;;5.25;;
9821;SDS011;4950;46.042;14.472;2022-08-25T01:41:35;5.95;;;5.45;;
9821;SDS011;4950;46.042;14.472;2022-08-25T01:44:10;5.78;;;5.28;;
9821;SDS011;4950;46.042;14.472;2022-08-25T01:46:37;5.50;;;5.00;;
9821;SDS011;4950;46.042;14.472;2022-08-25T01:49:04;5.68;;;5.00;;
9821;SDS011;4950;46.042;14.472;2022-08-25T01:51:32;9.90;;;5.00;;
9821;SDS011;4950;46.042;14.472;2022-08-25T01:54:04;4.90;;;4.47;;
9821;SDS011;4950;46.042;14.472;2022-08-25T01:56:31;5.32;;;4.93;;
9821;SDS011;4950;46.042;14.472;2022-08-25T01:58:57;5.88;;;4.80;;
9821;SDS011;4950;46.042;14.472;2022-08-25T02:01:24;5.75;;;5.25;;
9821;SDS011;4950;46.042;14.472;2022-08-25T02:03:51;6.30;;;5.00;;
9821;SDS011;4950;46.042;14.472;2022-08-25T02:06:21;5.78;;;5.18;;
9821;SDS011;4950;46.042;14.472;2022-08-25T02:08:51;6.18;;;5.32;;
9821;SDS011;4950;46.042;14.472;2022-08-25T02:11:20;5.75;;;4.88;;
9821;SDS011;4950;46.042;14.472;2022-08-25T02:13:48;5.30;;;4.80;;
9821;SDS011;4950;46.042;14.472;2022-08-25T02:16:15;5.63;;;5.18;;
9821;SDS011;4950;46.042;14.472;2022-08-25T02:18:45;5.28;;;4.63;;
9821;SDS011;4950;46.042;14.472;2022-08-25T02:21:12;5.85;;;5.25;;
9821;SDS011;4950;46.042;14.472;2022-08-25T02:23:39;8.65;;;5.10;;
9821;SDS011;4950;46.042;14.472;2022-08-25T02:26:06;5.78;;;5.22;;
9821;SDS011;4950;46.042;14.472;2022-08-25T02:28:35;5.85;;;5.32;;
9821;SDS011;4950;46.042;14.472;2022-08-25T02:31:02;5.55;;;5.05;;
9821;SDS011;4950;46.042;14.472;2022-08-25T02:33:29;6.25;;;5.20;;
9821;SDS011;4950;46.042;14.472;2022-08-25T02:35:57;5.43;;;4.93;;
9821;SDS011;4950;46.042;14.472;2022-08-25T02:38:24;5.93;;;5.32;;
9821;SDS011;4950;46.042;14.472;2022-08-25T02:40:52;5.90;;;5.40;;
9821;SDS011;4950;46.042;14.472;2022-08-25T02:43:18;5.30;;;4.88;;
9821;SDS011;4950;46.042;14.472;2022-08-25T02:45:47;5.38;;;4.72;;
9821;SDS011;4950;46.042;14.472;2022-08-25T02:48:13;6.40;;;5.28;;
9821;SDS011;4950;46.042;14.472;2022-08-25T02:50:40;4.93;;;4.47;;
9821;SDS011;4950;46.042;14.472;2022-08-25T02:53:11;5.82;;;5.32;;
9821;SDS011;4950;46.042;14.472;2022-08-25T02:55:38;6.65;;;6.00;;
9821;SDS011;4950;46.042;14.472;2022-08-25T02:58:05;5.88;;;5.32;;
9821;SDS011;4950;46.042;14.472;2022-08-25T03:00:33;6.15;;;5.55;;
9821;SDS011;4950;46.042;14.472;2022-08-25T03:03:02;5.53;;;5.13;;
9821;SDS011;4950;46.042;14.472;2022-08-25T03:05:29;6.30;;;5.70;;
9821;SDS011;4950;46.042;14.472;2022-08-25T03:07:56;7.00;;;5.20;;
9821;SDS011;4950;46.042;14.472;2022-08-25T03:10:22;6.00;;;5.50;;
9821;SDS011;4950;46.042;14.472;2022-08-25T03:12:49;6.68;;;5.53;;
9821;SDS011;4950;46.042;14.472;2022-08-25T03:15:16;6.80;;;6.10;;
9821;SDS011;4950;46.042;14.472;2022-08-25T03:17:43;7.10;;;5.70;;
9821;SDS011;4950;46.042;14.472;2022-08-25T03:20:12;6.00;;;5.30;;
9821;SDS011;4950;46.042;14.472;2022-08-25T03:22:39;6.40;;;5.90;;
9821;SDS011;4950;46.042;14.472;2022-08-25T03:25:07;6.43;;;5.20;;
9821;SDS011;4950;46.042;14.472;2022-08-25T03:27:51;6.13;;;5.53;;
9821;SDS011;4950;46.042;14.472;2022-08-25T03:30:18;6.05;;;5.47;;
9821;SDS011;4950;46.042;14.472;2022-08-25T03:32:45;6.03;;;5.45;;
9821;SDS011;4950;46.042;14.472;2022-08-25T03:35:13;6.68;;;5.55;;
9821;SDS011;4950;46.042;14.472;2022-08-25T03:37:40;6.70;;;5.68;;
9821;SDS011;4950;46.042;14.472;2022-08-25T03:40:08;8.18;;;5.30;;
9821;SDS011;4950;46.042;14.472;2022-08-25T03:42:39;6.28;;;5.68;;
9821;SDS011;4950;46.042;14.472;2022-08-25T03:45:07;6.13;;;5.57;;
9821;SDS011;4950;46.042;14.472;2022-08-25T03:47:35;6.03;;;5.50;;
9821;SDS011;4950;46.042;14.472;2022-08-25T03:50:03;6.13;;;5.63;;
9821;SDS011;4950;46.042;14.472;2022-08-25T03:52:31;8.35;;;5.82;;
9821;SDS011;4950;46.042;14.472;2022-08-25T03:54:58;6.03;;;5.43;;
9821;SDS011;4950;46.042;14.472;2022-08-25T03:57:25;8.32;;;6.25;;
9821;SDS011;4950;46.042;14.472;2022-08-25T03:59:51;6.20;;;5.60;;
9821;SDS011;4950;46.042;14.472;2022-08-25T04:02:18;6.72;;;5.95;;
9821;SDS011;4950;46.042;14.472;2022-08-25T04:04:46;6.75;;;6.00;;
9821;SDS011;4950;46.042;14.472;2022-08-25T04:07:13;6.88;;;5.53;;
9821;SDS011;4950;46.042;14.472;2022-08-25T04:09:41;6.50;;;5.90;;
9821;SDS011;4950;46.042;14.472;2022-08-25T04:12:08;7.22;;;6.07;;
9821;SDS011;4950;46.042;14.472;2022-08-25T04:14:35;6.47;;;5.82;;
9821;SDS011;4950;46.042;14.472;2022-08-25T04:17:02;7.57;;;6.78;;
9821;SDS011;4950;46.042;14.472;2022-08-25T04:19:29;7.57;;;6.88;;
9821;SDS011;4950;46.042;14.472;2022-08-25T04:21:56;6.68;;;6.07;;
9821;SDS011;4950;46.042;14.472;2022-08-25T04:24:23;6.45;;;5.90;;
9821;SDS011;4950;46.042;14.472;2022-08-25T04:26:51;7.45;;;6.03;;
9821;SDS011;4950;46.042;14.472;2022-08-25T04:29:19;8.18;;;6.60;;
9821;SDS011;4950;46.042;14.472;2022-08-25T04:31:48;7.63;;;6.22;;
9821;SDS011;4950;46.042;14.472;2022-08-25T04:34:15;7.90;;;6.20;;
9821;SDS011;4950;46.042;14.472;2022-08-25T04:36:42;6.85;;;6.22;;
9821;SDS011;4950;46.042;14.472;2022-08-25T04:39:09;8.15;;;5.88;;
9821;SDS011;4950;46.042;14.472;2022-08-25T04:41:36;6.40;;;5.90;;
9821;SDS011;4950;46.042;14.472;2022-08-25T04:44:04;6.68;;;5.88;;
9821;SDS011;4950;46.042;14.472;2022-08-25T04:46:31;7.57;;;6.20;;
9821;SDS011;4950;46.042;14.472;2022-08-25T04:48:59;6.38;;;5.78;;
9821;SDS011;4950;46.042;14.472;2022-08-25T04:51:28;7.03;;;5.95;;
9821;SDS011;4950;46.042;14.472;2022-08-25T04:53:57;6.82;;;5.80;;
9821;SDS011;4950;46.042;14.472;2022-08-25T04:56:25;6.53;;;5.82;;
9821;SDS011;4950;46.042;14.472;2022-08-25T04:58:52;8.57;;;6.53;;
9821;SDS011;4950;46.042;14.472;2022-08-25T05:01:22;8.32;;;6.43;;
9821;SDS011;4950;46.042;14.472;2022-08-25T05:03:51;8.05;;;7.28;;
9821;SDS011;4950;46.042;14.472;2022-08-25T05:06:19;8.43;;;5.85;;
9821;SDS011;4950;46.042;14.472;2022-08-25T05:08:46;7.55;;;6.43;;
9821;SDS011;4950;46.042;14.472;2022-08-25T05:11:13;7.47;;;6.10;;
9821;SDS011;4950;46.042;14.472;2022-08-25T05:13:42;7.20;;;5.97;;
9821;SDS011;4950;46.042;14.472;2022-08-25T05:16:09;7.57;;;6.88;;
9821;SDS011;4950;46.042;14.472;2022-08-25T05:18:37;7.10;;;5.97;;
9821;SDS011;4950;46.042;14.472;2022-08-25T05:21:06;7.57;;;6.55;;
9821;SDS011;4950;46.042;14.472;2022-08-25T05:23:34;6.60;;;5.97;;
9821;SDS011;4950;46.042;14.472;2022-08-25T05:26:02;8.80;;;6.38;;
9821;SDS011;4950;46.042;14.472;2022-08-25T05:28:30;6.95;;;6.25;;
9821;SDS011;4950;46.042;14.472;2022-08-25T05:30:57;9.32;;;6.90;;
9821;SDS011;4950;46.042;14.472;2022-08-25T05:33:25;10.27;;;7.55;;
9821;SDS011;4950;46.042;14.472;2022-08-25T05:35:54;8.10;;;6.80;;
9821;SDS011;4950;46.042;14.472;2022-08-25T05:38:21;7.82;;;6.85;;
9821;SDS011;4950;46.042;14.472;2022-08-25T05:40:50;10.00;;;6.38;;
9821;SDS011;4950;46.042;14.472;2022-08-25T05:43:18;6.82;;;6.22;;
9821;SDS011;4950;46.042;14.472;2022-08-25T05:45:44;11.35;;;7.07;;
9821;SDS011;4950;46.042;14.472;2022-08-25T05:48:11;11.75;;;7.25;;
9821;SDS011;4950;46.042;14.472;2022-08-25T05:50:38;7.72;;;6.95;;
9821;SDS011;4950;46.042;14.472;2022-08-25T05:53:06;7.57;;;6.88;;
9821;SDS011;4950;46.042;14.472;2022-08-25T05:55:33;8.80;;;7.90;;
9821;SDS011;4950;46.042;14.472;2022-08-25T05:57:59;11.30;;;8.30;;
9821;SDS011;4950;46.042;14.472;2022-08-25T06:00:26;9.35;;;8.35;;
9821;SDS011;4950;46.042;14.472;2022-08-25T06:02:53;9.75;;;8.52;;
9821;SDS011;4950;46.042;14.472;2022-08-25T06:05:19;10.65;;;8.20;;
9821;SDS011;4950;46.042;14.472;2022-08-25T06:07:48;10.23;;;8.95;;
9821;SDS011;4950;46.042;14.472;2022-08-25T06:10:17;9.93;;;7.72;;
9821;SDS011;4950;46.042;14.472;2022-08-25T06:12:46;10.57;;;7.93;;
9821;SDS011;4950;46.042;14.472;2022-08-25T06:15:14;8.63;;;7.15;;
9821;SDS011;4950;46.042;14.472;2022-08-25T06:17:42;8.13;;;7.28;;
9821;SDS011;4950;46.042;14.472;2022-08-25T06:20:10;9.93;;;7.80;;
9821;SDS011;4950;46.042;14.472;2022-08-25T06:22:38;11.27;;;7.72;;
9821;SDS011;4950;46.042;14.472;2022-08-25T06:25:06;9.23;;;7.35;;
9821;SDS011;4950;46.042;14.472;2022-08-25T06:27:35;11.45;;;7.78;;
9821;SDS011;4950;46.042;14.472;2022-08-25T06:30:02;14.73;;;8.32;;
9821;SDS011;4950;46.042;14.472;2022-08-25T06:32:30;14.25;;;8.02;;
9821;SDS011;4950;46.042;14.472;2022-08-25T06:34:57;25.05;;;9.63;;
9821;SDS011;4950;46.042;14.472;2022-08-25T06:37:24;18.48;;;9.13;;
9821;SDS011;4950;46.042;14.472;2022-08-25T06:39:51;13.23;;;8.90;;
9821;SDS011;4950;46.042;14.472;2022-08-25T06:42:18;9.50;;;8.32;;
9821;SDS011;4950;46.042;14.472;2022-08-25T06:44:46;11.88;;;9.00;;
9821;SDS011;4950;46.042;14.472;2022-08-25T06:47:13;10.02;;;8.48;;
9821;SDS011;4950;46.042;14.472;2022-08-25T06:49:40;13.32;;;10.07;;
9821;SDS011;4950;46.042;14.472;2022-08-25T06:52:07;10.80;;;9.27;;
9821;SDS011;4950;46.042;14.472;2022-08-25T06:54:33;12.85;;;8.35;;
9821;SDS011;4950;46.042;14.472;2022-08-25T06:57:00;10.48;;;8.13;;
9821;SDS011;4950;46.042;14.472;2022-08-25T06:59:28;11.05;;;8.80;;
9821;SDS011;4950;46.042;14.472;2022-08-25T07:01:56;12.23;;;8.95;;
9821;SDS011;4950;46.042;14.472;2022-08-25T07:04:23;9.13;;;7.97;;
9821;SDS011;4950;46.042;14.472;2022-08-25T07:06:50;10.68;;;8.20;;
9821;SDS011;4950;46.042;14.472;2022-08-25T07:09:16;7.93;;;7.20;;
9821;SDS011;4950;46.042;14.472;2022-08-25T07:11:43;10.73;;;8.02;;
9821;SDS011;4950;46.042;14.472;2022-08-25T07:14:11;9.07;;;7.95;;
9821;SDS011;4950;46.042;14.472;2022-08-25T07:16:40;8.75;;;7.85;;
9821;SDS011;4950;46.042;14.472;2022-08-25T07:19:09;9.50;;;7.82;;
9821;SDS011;4950;46.042;14.472;2022-08-25T07:21:37;8.68;;;7.70;;
9821;SDS011;4950;46.042;14.472;2022-08-25T07:24:06;10.25;;;8.65;;
9821;SDS011;4950;46.042;14.472;2022-08-25T07:26:34;9.07;;;8.10;;
9821;SDS011;4950;46.042;14.472;2022-08-25T07:29:02;10.95;;;8.13;;
9821;SDS011;4950;46.042;14.472;2022-08-25T07:31:31;9.25;;;7.97;;
9821;SDS011;4950;46.042;14.472;2022-08-25T07:33:58;10.23;;;7.93;;
9821;SDS011;4950;46.042;14.472;2022-08-25T07:36:43;9.45;;;7.97;;
9821;SDS011;4950;46.042;14.472;2022-08-25T07:39:10;9.38;;;8.32;;
9821;SDS011;4950;46.042;14.472;2022-08-25T07:41:38;7.85;;;7.10;;
9821;SDS011;4950;46.042;14.472;2022-08-25T07:44:07;10.02;;;7.97;;
9821;SDS011;4950;46.042;14.472;2022-08-25T07:46:35;8.40;;;7.60;;
9821;SDS011;4950;46.042;14.472;2022-08-25T07:49:02;8.65;;;7.78;;
9821;SDS011;4950;46.042;14.472;2022-08-25T07:51:28;7.72;;;7.03;;
9821;SDS011;4950;46.042;14.472;2022-08-25T07:53:56;7.93;;;7.13;;
9821;SDS011;4950;46.042;14.472;2022-08-25T07:56:23;7.70;;;7.00;;
9821;SDS011;4950;46.042;14.472;2022-08-25T07:58:50;11.20;;;6.78;;
9821;SDS011;4950;46.042;14.472;2022-08-25T08:01:17;9.00;;;7.63;;
9821;SDS011;4950;46.042;14.472;2022-08-25T08:03:45;7.28;;;6.68;;
9821;SDS011;4950;46.042;14.472;2022-08-25T08:06:13;8.98;;;7.30;;
9821;SDS011;4950;46.042;14.472;2022-08-25T08:08:43;6.75;;;6.13;;
9821;SDS011;4950;46.042;14.472;2022-08-25T08:11:15;9.13;;;6.53;;
9821;SDS011;4950;46.042;14.472;2022-08-25T08:13:43;7.30;;;6.68;;
9821;SDS011;4950;46.042;14.472;2022-08-25T08:16:11;7.72;;;6.80;;
9821;SDS011;4950;46.042;14.472;2022-08-25T08:18:39;7.57;;;6.65;;
9821;SDS011;4950;46.042;14.472;2022-08-25T08:21:09;8.32;;;6.60;;
9821;SDS011;4950;46.042;14.472;2022-08-25T08:23:37;8.68;;;6.72;;
9821;SDS011;4950;46.042;14.472;2022-08-25T08:26:04;8.10;;;6.20;;
9821;SDS011;4950;46.042;14.472;2022-08-25T08:28:32;9.85;;;6.53;;
9821;SDS011;4950;46.042;14.472;2022-08-25T08:30:59;9.30;;;6.45;;
9821;SDS011;4950;46.042;14.472;2022-08-25T08:33:26;8.27;;;7.15;;
9821;SDS011;4950;46.042;14.472;2022-08-25T08:35:56;7.57;;;6.68;;
9821;SDS011;4950;46.042;14.472;2022-08-25T08:38:24;7.80;;;6.80;;
9821;SDS011;4950;46.042;14.472;2022-08-25T08:40:54;9.70;;;6.75;;
9821;SDS011;4950;46.042;14.472;2022-08-25T08:43:47;7.65;;;5.97;;
9821;SDS011;4950;46.042;14.472;2022-08-25T08:46:19;7.30;;;6.50;;
9821;SDS011;4950;46.042;14.472;2022-08-25T08:48:54;7.05;;;6.45;;
9821;SDS011;4950;46.042;14.472;2022-08-25T08:51:27;8.70;;;6.03;;
9821;SDS011;4950;46.042;14.472;2022-08-25T08:53:58;9.40;;;6.55;;
9821;SDS011;4950;46.042;14.472;2022-08-25T08:56:31;13.27;;;7.13;;
9821;SDS011;4950;46.042;14.472;2022-08-25T08:59:03;7.95;;;7.18;;
9821;SDS011;4950;46.042;14.472;2022-08-25T09:01:37;7.75;;;7.05;;
9821;SDS011;4950;46.042;14.472;2022-08-25T09:04:10;8.38;;;7.00;;
9821;SDS011;4950;46.042;14.472;2022-08-25T09:06:42;7.95;;;6.80;;
9821;SDS011;4950;46.042;14.472;2022-08-25T09:09:13;7.68;;;7.00;;
9821;SDS011;4950;46.042;14.472;2022-08-25T09:11:48;7.75;;;6.88;;
9821;SDS011;4950;46.042;14.472;2022-08-25T09:14:29;8.55;;;6.30;;
9821;SDS011;4950;46.042;14.472;2022-08-25T09:17:05;9.18;;;6.70;;
9821;SDS011;4950;46.042;14.472;2022-08-25T09:19:49;7.10;;;6.50;;
9821;SDS011;4950;46.042;14.472;2022-08-25T09:22:39;10.18;;;6.95;;
9821;SDS011;4950;46.042;14.472;2022-08-25T09:25:14;8.07;;;7.28;;
9821;SDS011;4950;46.042;14.472;2022-08-25T09:27:50;8.35;;;7.45;;
9821;SDS011;4950;46.042;14.472;2022-08-25T09:30:28;7.53;;;6.82;;
9821;SDS011;4950;46.042;14.472;2022-08-25T09:33:02;7.95;;;6.10;;
9821;SDS011;4950;46.042;14.472;2022-08-25T09:35:30;9.68;;;6.72;;
9821;SDS011;4950;46.042;14.472;2022-08-25T09:37:59;8.77;;;6.53;;
9821;SDS011;4950;46.042;14.472;2022-08-25T09:40:29;8.25;;;6.72;;
9821;SDS011;4950;46.042;14.472;2022-08-25T09:43:00;8.18;;;6.45;;
9821;SDS011;4950;46.042;14.472;2022-08-25T09:45:32;8.73;;;6.60;;
9821;SDS011;4950;46.042;14.472;2022-08-25T09:48:18;7.47;;;6.78;;
9821;SDS011;4950;46.042;14.472;2022-08-25T09:50:47;7.38;;;6.68;;
9821;SDS011;4950;46.042;14.472;2022-08-25T09:53:16;7.35;;;6.35;;
9821;SDS011;4950;46.042;14.472;2022-08-25T09:55:43;7.25;;;6.47;;
9821;SDS011;4950;46.042;14.472;2022-08-25T09:58:18;6.88;;;6.18;;
9821;SDS011;4950;46.042;14.472;2022-08-25T10:01:00;8.60;;;6.00;;
9821;SDS011;4950;46.042;14.472;2022-08-25T10:03:37;9.57;;;6.20;;
9821;SDS011;4950;46.042;14.472;2022-08-25T10:06:18;6.97;;;6.10;;
9821;SDS011;4950;46.042;14.472;2022-08-25T10:08:50;8.65;;;6.07;;
9821;SDS011;4950;46.042;14.472;2022-08-25T10:11:29;7.47;;;6.45;;
9821;SDS011;4950;46.042;14.472;2022-08-25T10:14:18;7.00;;;6.18;;
9821;SDS011;4950;46.042;14.472;2022-08-25T10:17:10;6.75;;;6.07;;
9821;SDS011;4950;46.042;14.472;2022-08-25T10:19:39;6.68;;;5.97;;
9821;SDS011;4950;46.042;14.472;2022-08-25T10:22:06;7.82;;;6.28;;
9821;SDS011;4950;46.042;14.472;2022-08-25T10:24:35;7.78;;;6.28;;
9821;SDS011;4950;46.042;14.472;2022-08-25T10:27:05;8.27;;;6.38;;
9821;SDS011;4950;46.042;14.472;2022-08-25T10:29:50;8.05;;;6.32;;
9821;SDS011;4950;46.042;14.472;2022-08-25T10:32:35;6.45;;;5.85;;
9821;SDS011;4950;46.042;14.472;2022-08-25T10:35:18;8.85;;;6.05;;
9821;SDS011;4950;46.042;14.472;2022-08-25T10:37:50;7.97;;;6.35;;
9821;SDS011;4950;46.042;14.472;2022-08-25T10:40:29;8.73;;;5.75;;
9821;SDS011;4950;46.042;14.472;2022-08-25T10:43:04;10.57;;;6.63;;
9821;SDS011;4950;46.042;14.472;2022-08-25T10:45:37;7.80;;;5.93;;
9821;SDS011;4950;46.042;14.472;2022-08-25T10:48:27;7.93;;;5.57;;
9821;SDS011;4950;46.042;14.472;2022-08-25T10:51:08;7.63;;;6.22;;
9821;SDS011;4950;46.042;14.472;2022-08-25T10:53:53;6.30;;;5.70;;
9821;SDS011;4950;46.042;14.472;2022-08-25T10:56:25;7.45;;;6.38;;
9821;SDS011;4950;46.042;14.472;2022-08-25T10:59:11;6.88;;;5.65;;
9821;SDS011;4950;46.042;14.472;2022-08-25T11:02:00;7.45;;;6.30;;
9821;SDS011;4950;46.042;14.472;2022-08-25T11:04:39;5.82;;;5.32;;
9821;SDS011;4950;46.042;14.472;2022-08-25T11:07:10;14.32;;;6.72;;
9821;SDS011;4950;46.042;14.472;2022-08-25T11:09:46;9.75;;;6.63;;
9821;SDS011;4950;46.042;14.472;2022-08-25T11:12:17;16.42;;;6.35;;
9821;SDS011;4950;46.042;14.472;2022-08-25T11:14:50;8.32;;;6.10;;
9821;SDS011;4950;46.042;14.472;2022-08-25T11:17:23;9.85;;;6.45;;
9821;SDS011;4950;46.042;14.472;2022-08-25T11:19:54;22.75;;;6.97;;
9821;SDS011;4950;46.042;14.472;2022-08-25T11:22:27;9.07;;;6.30;;
9821;SDS011;4950;46.042;14.472;2022-08-25T11:25:03;7.45;;;6.07;;
9821;SDS011;4950;46.042;14.472;2022-08-25T11:27:37;7.80;;;5.50;;
9821;SDS011;4950;46.042;14.472;2022-08-25T11:30:11;9.15;;;6.03;;
9821;SDS011;4950;46.042;14.472;2022-08-25T11:32:39;12.15;;;6.20;;
9821;SDS011;4950;46.042;14.472;2022-08-25T11:35:12;7.97;;;5.75;;
9821;SDS011;4950;46.042;14.472;2022-08-25T11:37:43;7.88;;;5.72;;
9821;SDS011;4950;46.042;14.472;2022-08-25T11:40:19;6.43;;;5.18;;
9821;SDS011;4950;46.042;14.472;2022-08-25T11:43:09;4.40;;;3.85;;
9821;SDS011;4950;46.042;14.472;2022-08-25T11:45:53;7.95;;;4.10;;
9821;SDS011;4950;46.042;14.472;2022-08-25T11:48:38;5.03;;;4.25;;
9821;SDS011;4950;46.042;14.472;2022-08-25T11:51:26;5.05;;;4.05;;
9821;SDS011;4950;46.042;14.472;2022-08-25T11:54:04;5.63;;;4.15;;
9821;SDS011;4950;46.042;14.472;2022-08-25T11:56:41;5.00;;;4.43;;
9821;SDS011;4950;46.042;14.472;2022-08-25T11:59:21;6.25;;;4.18;;
9821;SDS011;4950;46.042;14.472;2022-08-25T12:02:29;5.82;;;4.22;;
9821;SDS011;4950;46.042;14.472;2022-08-25T12:04:59;8.15;;;4.43;;
9821;SDS011;4950;46.042;14.472;2022-08-25T12:07:27;10.57;;;5.43;;
9821;SDS011;4950;46.042;14.472;2022-08-25T12:10:09;10.85;;;5.78;;
9821;SDS011;4950;46.042;14.472;2022-08-25T12:12:58;6.65;;;4.80;;
9821;SDS011;4950;46.042;14.472;2022-08-25T12:18:42;6.90;;;4.50;;
9821;SDS011;4950;46.042;14.472;2022-08-25T12:24:05;8.95;;;4.68;;
9821;SDS011;4950;46.042;14.472;2022-08-25T12:26:35;5.90;;;4.93;;
9821;SDS011;4950;46.042;14.472;2022-08-25T12:29:09;6.43;;;5.25;;
9821;SDS011;4950;46.042;14.472;2022-08-25T12:31:44;5.75;;;5.07;;
9821;SDS011;4950;46.042;14.472;2022-08-25T12:34:23;5.93;;;5.32;;
9821;SDS011;4950;46.042;14.472;2022-08-25T12:37:03;8.10;;;5.45;;
9821;SDS011;4950;46.042;14.472;2022-08-25T12:39:36;5.93;;;4.93;;
9821;SDS011;4950;46.042;14.472;2022-08-25T12:42:18;6.82;;;5.07;;
9821;SDS011;4950;46.042;14.472;2022-08-25T12:45:07;6.68;;;5.05;;
9821;SDS011;4950;46.042;14.472;2022-08-25T12:47:40;6.70;;;4.72;;
9821;SDS011;4950;46.042;14.472;2022-08-25T12:50:29;7.05;;;5.55;;
9821;SDS011;4950;46.042;14.472;2022-08-25T12:53:11;10.07;;;5.85;;
9821;SDS011;4950;46.042;14.472;2022-08-25T12:55:45;7.60;;;5.75;;
9821;SDS011;4950;46.042;14.472;2022-08-25T12:58:15;9.23;;;5.43;;
9821;SDS011;4950;46.042;14.472;2022-08-25T13:00:48;9.30;;;5.75;;
9821;SDS011;4950;46.042;14.472;2022-08-25T13:03:37;8.48;;;6.05;;
9821;SDS011;4950;46.042;14.472;2022-08-25T13:06:21;6.75;;;5.75;;
9821;SDS011;4950;46.042;14.472;2022-08-25T13:12:23;5.82;;;5.32;;
9821;SDS011;4950;46.042;14.472;2022-08-25T13:14:56;8.98;;;5.82;;
9821;SDS011;4950;46.042;14.472;2022-08-25T13:17:24;7.63;;;5.47;;
9821;SDS011;4950;46.042;14.472;2022-08-25T13:22:38;6.50;;;5.65;;
9821;SDS011;4950;46.042;14.472;2022-08-25T13:25:05;8.13;;;5.75;;
9821;SDS011;4950;46.042;14.472;2022-08-25T13:27:39;8.23;;;5.60;;
9821;SDS011;4950;46.042;14.472;2022-08-25T13:30:06;8.93;;;6.07;;
9821;SDS011;4950;46.042;14.472;2022-08-25T13:32:47;7.85;;;6.22;;
9821;SDS011;4950;46.042;14.472;2022-08-25T13:35:14;11.98;;;6.10;;
9821;SDS011;4950;46.042;14.472;2022-08-25T13:37:44;8.25;;;6.35;;
9821;SDS011;4950;46.042;14.472;2022-08-25T13:40:10;8.65;;;6.13;;
9821;SDS011;4950;46.042;14.472;2022-08-25T13:42:41;8.70;;;6.38;;
9821;SDS011;4950;46.042;14.472;2022-08-25T13:45:11;7.78;;;6.55;;
9821;SDS011;4950;46.042;14.472;2022-08-25T13:47:43;8.50;;;6.35;;
9821;SDS011;4950;46.042;14.472;2022-08-25T13:53:00;10.57;;;7.45;;
9821;SDS011;4950;46.042;14.472;2022-08-25T13:55:37;8.48;;;6.78;;
9821;SDS011;4950;46.042;14.472;2022-08-25T13:58:05;6.20;;;5.60;;
9821;SDS011;4950;46.042;14.472;2022-08-25T14:00:40;11.20;;;6.32;;
9821;SDS011;4950;46.042;14.472;2022-08-25T14:06:02;10.07;;;5.43;;
9821;SDS011;4950;46.042;14.472;2022-08-25T14:08:34;8.05;;;5.05;;
9821;SDS011;4950;46.042;14.472;2022-08-25T14:11:05;6.03;;;4.45;;
9821;SDS011;4950;46.042;14.472;2022-08-25T14:13:34;7.38;;;5.28;;
9821;SDS011;4950;46.042;14.472;2022-08-25T14:16:09;9.65;;;5.70;;
9821;SDS011;4950;46.042;14.472;2022-08-25T14:18:39;7.95;;;5.63;;
9821;SDS011;4950;46.042;14.472;2022-08-25T14:21:13;6.63;;;4.90;;
9821;SDS011;4950;46.042;14.472;2022-08-25T14:23:42;6.28;;;5.30;;
9821;SDS011;4950;46.042;14.472;2022-08-25T14:26:08;6.00;;;5.18;;
9821;SDS011;4950;46.042;14.472;2022-08-25T14:28:35;10.35;;;6.30;;
9821;SDS011;4950;46.042;14.472;2022-08-25T14:31:04;9.10;;;6.07;;
9821;SDS011;4950;46.042;14.472;2022-08-25T14:33:34;6.68;;;5.30;;
9821;SDS011;4950;46.042;14.472;2022-08-25T14:36:03;6.57;;;5.88;;
9821;SDS011;4950;46.042;14.472;2022-08-25T14:38:31;7.75;;;5.93;;
9821;SDS011;4950;46.042;14.472;2022-08-25T14:40:59;5.60;;;5.00;;
9821;SDS011;4950;46.042;14.472;2022-08-25T14:43:26;8.93;;;5.05;;
9821;SDS011;4950;46.042;14.472;2022-08-25T14:45:53;8.07;;;5.75;;
9821;SDS011;4950;46.042;14.472;2022-08-25T14:48:23;8.77;;;5.03;;
9821;SDS011;4950;46.042;14.472;2022-08-25T14:50:52;6.22;;;5.43;;
9821;SDS011;4950;46.042;14.472;2022-08-25T14:53:20;11.40;;;5.18;;
9821;SDS011;4950;46.042;14.472;2022-08-25T14:55:47;8.55;;;5.60;;
9821;SDS011;4950;46.042;14.472;2022-08-25T14:58:19;8.90;;;5.78;;
9821;SDS011;4950;46.042;14.472;2022-08-25T15:00:45;8.50;;;5.65;;
9821;SDS011;4950;46.042;14.472;2022-08-25T15:03:13;10.48;;;5.82;;
9821;SDS011;4950;46.042;14.472;2022-08-25T15:05:43;10.60;;;6.07;;
9821;SDS011;4950;46.042;14.472;2022-08-25T15:08:10;11.88;;;5.85;;
9821;SDS011;4950;46.042;14.472;2022-08-25T15:10:54;9.02;;;5.88;;
9821;SDS011;4950;46.042;14.472;2022-08-25T15:13:22;8.35;;;5.80;;
9821;SDS011;4950;46.042;14.472;2022-08-25T15:15:51;7.70;;;6.03;;
9821;SDS011;4950;46.042;14.472;2022-08-25T15:18:18;6.45;;;5.50;;
9821;SDS011;4950;46.042;14.472;2022-08-25T15:20:45;8.50;;;6.18;;
9821;SDS011;4950;46.042;14.472;2022-08-25T15:23:12;8.68;;;6.28;;
9821;SDS011;4950;46.042;14.472;2022-08-25T15:25:43;9.68;;;6.28;;
9821;SDS011;4950;46.042;14.472;2022-08-25T15:28:11;7.95;;;6.15;;
9821;SDS011;4950;46.042;14.472;2022-08-25T15:30:40;9.10;;;6.65;;
9821;SDS011;4950;46.042;14.472;2022-08-25T15:33:07;8.95;;;5.47;;
9821;SDS011;4950;46.042;14.472;2022-08-25T15:35:33;8.68;;;5.75;;
9821;SDS011;4950;46.042;14.472;2022-08-25T15:38:00;8.45;;;6.13;;
9821;SDS011;4950;46.042;14.472;2022-08-25T15:40:27;7.00;;;5.68;;